Ozone, Tennessee
Current Conditions -  °F | °C
As of 11:53 PM on Monday 20 Oct 2014 (Local Time) from KCSV Reporting Station
Clear Clear  
Wind Chill: 50°   Ceiling: Unl
Heat Index: 50°   Visibility: 10mi
Dew Point: 46°   Wind: 5mph
Humidity: 86%   Direction: 250°WSW
Pressure: 30.03"   Gusts: NA
Location:  35.88°N, 84.81°W
Report Text: KCSV 210453Z AUTO 25004KT 10SM CLR 10/08 A3003 RMK AO2 SLP160 T01000078
Loading
Personal Weather Stations






























Interactive Weather Map
Tropical Storm Tracking
New forecast layout! Learn more

10-Day Weather Forecast

Advertisements
Track Severe Weather on mobile